Licenciado y General Ignacio Lopez Rayon Airport
MMPN : now visible

Airfield :











YOU CAN JOIN US ON...

 
LOGIN :

Register | Disclaimer

   EN    FR    IT 

 









Legend :    VFR   Marginal VFR   IFR   Intensive IFR   Very Intensive IFR
Visi :
Ceiling :
>= 8 km
>= 3000ft
5 to 8 km
1000 to 3000 ft
1500m to 5 km
500 to 1000 ft
800 to 1500m
200 to 500 ft
< 800m
< 200 ft
Symbols :   Thunderstorms  Fog  Heavy snow  Heavy precipitations  Wind > 20 kt






- Airport Elevation : 5258 ft
- IATA code : UPN


MMPN - Licenciado y General Ignacio Lopez Rayon

CURRENT METAR :
  • 072141Z 16008KT 12SM SCT038CB BKN110 BKN250 24/18 A3013 RMK 8/333 HZY

EXPIRED METARs :
  • 072040Z 15010KT 12SM SCT040CB BKN110 BKN270 24/17 A3016 RMK 8/331 HZY
  • 071940Z 20008KT 12SM BKN040TCU BKN270 24/18 A3018 RMK 8/201 HZY AC CC

TAF TAF MMPN
Valid from the 07 at 18:00 until the 08 at 18:00 UTC


071732Z 0718/0818 17005KT P6SM SCT030 BKN100
FM072000 18012KT P6SM VC RA BKN030CB BKN100
TEMPO 0721/0801 3SM TSRA OVC030CB
FM080200 00000KT 6SM HZ SCT030 BKN100
PROB40 0802/0806 6SM -RA
FM080800 00000KT 6SM HZ SCT020 BKN100
TEMPO 0810/0814 3SM BR HZ BKN020
MMFR FIR / North America



MET'MAP, your aeronautical weather chart ! - Copyright ORBIFLY December 2007 - Disclaimer

ORBIFLY MET'MAP TEAM :

Programming & Development : Alexandra Zaïnal
Concept & original design : Baudouin d'Aumeries
Assistance for programming : Marc-Olivier Méhu
Technical & hardware support : Manuel Goepfert

Contact : metmap@orbifly.com




SOURCES & CREDITS :

   NOAA       Earth
Advisory